createdAt,value
2023-02-23T00:01:32.959Z,36.90
2023-02-23T00:04:19.119Z,31.98
2023-02-23T00:07:06.484Z,36.28
2023-02-23T00:09:57.043Z,36.15
2023-02-23T00:12:45.891Z,36.85
2023-02-23T00:15:32.059Z,35.00
2023-02-23T00:18:17.642Z,35.40
2023-02-23T00:21:03.835Z,39.33
2023-02-23T00:23:59.193Z,39.42
2023-02-23T00:26:47.782Z,36.55
2023-02-23T00:29:39.516Z,36.05
2023-02-23T00:32:29.056Z,32.17
2023-02-23T00:35:19.201Z,31.75
2023-02-23T00:38:04.976Z,32.20
2023-02-23T00:40:52.022Z,35.78
2023-02-23T00:46:52.704Z,28.95
2023-02-23T00:49:38.432Z,33.40
2023-02-23T00:52:23.834Z,28.67
2023-02-23T00:55:13.648Z,30.73
2023-02-23T00:57:59.505Z,31.25
2023-02-23T01:00:45.606Z,28.42
2023-02-23T01:03:31.600Z,28.10
2023-02-23T01:06:18.136Z,34.67
2023-02-23T01:09:09.828Z,27.90
2023-02-23T01:11:57.264Z,31.02
2023-02-23T01:14:43.342Z,27.55
2023-02-23T01:17:30.912Z,28.55
2023-02-23T01:20:19.967Z,29.00
2023-02-23T01:23:07.486Z,28.48
2023-02-23T01:25:53.334Z,34.38
2023-02-23T01:28:42.080Z,28.10
2023-02-23T01:31:51.225Z,30.35
2023-02-23T01:34:55.725Z,32.70
2023-02-23T01:38:00.505Z,30.42
2023-02-23T01:41:07.341Z,30.40
2023-02-23T01:44:15.064Z,29.00
2023-02-23T01:47:20.743Z,30.00
2023-02-23T01:50:37.933Z,31.88
2023-02-23T01:53:55.282Z,31.25
2023-02-23T01:56:49.294Z,30.48
2023-02-23T01:59:49.425Z,30.50
2023-02-23T02:02:35.496Z,30.88
2023-02-23T02:05:21.668Z,34.47
2023-02-23T02:08:10.483Z,32.20
2023-02-23T02:10:57.657Z,31.50
2023-02-23T02:13:44.848Z,34.15
2023-02-23T02:16:52.895Z,30.80
2023-02-23T02:19:59.367Z,35.25
2023-02-23T02:23:08.591Z,31.38
2023-02-23T02:26:20.801Z,35.40
2023-02-23T02:29:34.870Z,31.85
2023-02-23T02:32:54.193Z,30.05
2023-02-23T02:36:07.884Z,31.77
2023-02-23T02:39:34.976Z,34.22
2023-02-23T02:42:51.141Z,33.97
2023-02-23T02:46:06.018Z,34.00
2023-02-23T03:32:11.263Z,34.70
2023-02-23T03:35:42.310Z,33.30
2023-02-23T03:39:04.312Z,33.25
2023-02-23T03:42:12.666Z,37.00
2023-02-23T03:45:23.182Z,35.30
2023-02-23T03:48:32.251Z,33.90
2023-02-23T03:51:42.987Z,33.88
2023-02-23T03:54:58.025Z,32.38
2023-02-23T03:58:11.693Z,31.67
2023-02-23T04:01:20.937Z,33.25
2023-02-23T04:04:29.496Z,32.90
2023-02-23T04:07:40.143Z,36.03
2023-02-23T04:10:47.635Z,35.08
2023-02-23T04:13:38.550Z,33.58
2023-02-23T04:16:24.739Z,36.55
2023-02-23T04:19:11.615Z,33.25
2023-02-23T04:21:57.096Z,34.33
2023-02-23T04:24:42.674Z,31.48
2023-02-23T04:27:28.673Z,31.00
2023-02-23T04:30:15.803Z,33.10
2023-02-23T04:33:01.685Z,36.78
2023-02-23T04:35:48.017Z,33.00
2023-02-23T04:40:28.174Z,31.65
2023-02-23T04:43:16.216Z,36.10
2023-02-23T04:46:02.118Z,40.20
2023-02-23T04:48:47.767Z,33.72
2023-02-23T04:51:34.263Z,37.22
2023-02-23T04:54:20.481Z,38.10
2023-02-23T05:06:21.920Z,37.33
2023-02-23T05:09:10.639Z,36.42
2023-02-23T05:11:56.580Z,36.22
2023-02-23T05:14:42.465Z,37.90
2023-02-23T05:17:28.591Z,37.20
2023-02-23T05:20:15.140Z,39.67
2023-02-23T05:23:01.155Z,39.28
2023-02-23T05:25:46.616Z,37.88
2023-02-23T05:28:34.630Z,37.92
2023-02-23T05:31:21.103Z,40.33
2023-02-23T05:34:07.202Z,41.05
2023-02-23T05:36:54.314Z,38.90
2023-02-23T05:39:41.134Z,33.05
2023-02-23T05:42:26.637Z,37.97
2023-02-23T05:45:15.691Z,40.75
2023-02-23T05:48:01.896Z,37.30
2023-02-23T05:50:47.434Z,40.70
2023-02-23T05:53:33.927Z,40.00
2023-02-23T05:56:23.393Z,44.33
2023-02-23T06:09:10.452Z,43.67
2023-02-23T06:12:02.978Z,40.92
2023-02-23T06:14:51.176Z,41.60
2023-02-23T06:17:37.765Z,37.40
2023-02-23T06:20:34.065Z,45.63
2023-02-23T06:23:21.723Z,42.78
2023-02-23T06:26:13.524Z,45.08
2023-02-23T06:28:59.208Z,37.25
2023-02-23T06:32:27.313Z,35.95
2023-02-23T06:35:13.383Z,43.03
2023-02-23T06:38:00.187Z,43.88
2023-02-23T06:40:45.959Z,38.53
2023-02-23T06:48:28.466Z,43.88
2023-02-23T06:51:14.892Z,40.97
2023-02-23T06:54:01.245Z,40.67
2023-02-23T06:57:02.462Z,43.50
2023-02-23T06:59:49.808Z,48.33
2023-02-23T07:17:59.742Z,41.00
2023-02-23T07:20:48.210Z,43.10
2023-02-23T07:23:38.149Z,39.67
2023-02-23T09:18:46.374Z,44.40
2023-02-23T09:29:12.761Z,38.13
2023-02-23T09:32:24.806Z,37.63
2023-02-23T10:42:30.766Z,25.60
2023-02-23T10:45:24.838Z,24.88
2023-02-23T10:48:24.600Z,27.90
2023-02-23T10:51:26.870Z,26.05
2023-02-23T10:54:44.210Z,27.88
2023-02-23T10:57:34.694Z,27.67
2023-02-23T11:00:21.454Z,25.25
2023-02-23T11:03:26.400Z,26.42
2023-02-23T11:06:37.542Z,29.83
2023-02-23T11:09:41.853Z,31.17
2023-02-23T11:12:43.305Z,26.42
2023-02-23T11:15:49.286Z,27.33
2023-02-23T11:18:41.002Z,25.75
2023-02-23T11:21:35.074Z,27.70
2023-02-23T11:24:41.438Z,26.45
2023-02-23T11:27:28.281Z,25.23
2023-02-23T11:30:19.434Z,25.27
2023-02-23T11:33:21.603Z,26.35
2023-02-23T11:36:32.681Z,26.00
2023-02-23T11:39:22.930Z,19.85
2023-02-23T11:42:25.408Z,20.92
2023-02-23T11:46:26.642Z,32.40
2023-02-23T11:49:36.063Z,20.23
2023-02-23T11:52:26.114Z,27.85
2023-02-23T11:55:20.130Z,25.15
2023-02-23T11:58:39.475Z,22.80
2023-02-23T12:01:47.159Z,22.13
2023-02-23T12:04:39.146Z,29.85
2023-02-23T12:07:42.193Z,20.25
2023-02-23T12:13:44.651Z,28.85
2023-02-23T12:16:44.742Z,19.92
2023-02-23T12:19:44.212Z,20.38
2023-02-23T12:22:40.747Z,17.55
2023-02-23T12:25:44.513Z,17.98
2023-02-23T12:37:01.717Z,23.13
2023-02-23T12:40:15.412Z,20.85
2023-02-23T12:53:44.332Z,20.23
2023-02-23T12:57:23.903Z,20.45
2023-02-23T13:00:41.054Z,17.02
2023-02-23T13:53:47.177Z,24.02
2023-02-23T14:02:36.761Z,23.35
2023-02-23T14:05:45.204Z,21.60
2023-02-23T14:08:45.329Z,25.70
2023-02-23T14:11:51.056Z,24.52
2023-02-23T14:14:37.462Z,25.38
2023-02-23T14:17:23.636Z,21.52
2023-02-23T14:20:29.343Z,22.00
2023-02-23T14:23:20.703Z,22.63
2023-02-23T14:26:36.381Z,21.83
2023-02-23T14:29:25.877Z,21.17
2023-02-23T14:32:21.151Z,26.38
2023-02-23T14:35:32.645Z,25.73
2023-02-23T14:38:47.162Z,26.50
2023-02-23T14:41:57.866Z,29.10
2023-02-23T14:44:51.541Z,32.22
2023-02-23T14:47:55.727Z,29.85
2023-02-23T14:50:43.711Z,32.67
2023-02-23T14:53:36.382Z,35.35
2023-02-23T14:56:35.566Z,40.20
2023-02-23T15:00:43.433Z,44.88
2023-02-23T15:03:14.993Z,39.65
2023-02-23T15:05:44.944Z,38.63
2023-02-23T15:14:38.485Z,45.28
2023-02-23T15:17:13.214Z,43.42
2023-02-23T15:19:40.792Z,43.35
2023-02-23T15:22:10.913Z,41.13
2023-02-23T15:24:50.118Z,47.17
2023-02-23T15:28:23.645Z,39.72
2023-02-23T15:35:04.800Z,48.30
2023-02-23T15:37:59.557Z,45.40
2023-02-23T15:40:39.045Z,42.78
2023-02-23T15:43:11.171Z,42.38
2023-02-23T15:45:50.055Z,44.80
2023-02-23T15:48:24.697Z,42.78
2023-02-23T15:50:58.012Z,43.53
2023-02-23T15:53:40.084Z,43.75
2023-02-23T15:56:16.403Z,44.92
2023-02-23T15:58:56.932Z,52.72
2023-02-23T16:01:34.118Z,49.10
2023-02-23T16:04:17.150Z,51.38
2023-02-23T16:07:06.745Z,49.75
2023-02-23T16:09:39.532Z,46.10
2023-02-23T16:12:20.987Z,49.50
2023-02-23T16:14:55.028Z,50.90
2023-02-23T16:17:44.207Z,46.83
2023-02-23T16:20:38.462Z,54.00
2023-02-23T16:23:17.744Z,52.45
2023-02-23T16:26:01.409Z,51.90
2023-02-23T16:28:46.579Z,50.17
2023-02-23T16:31:28.238Z,49.28
2023-02-23T16:34:00.713Z,51.63
2023-02-23T16:37:18.075Z,54.72
2023-02-23T16:39:46.052Z,48.28
2023-02-23T16:43:00.854Z,49.05
2023-02-23T16:45:32.776Z,54.35
2023-02-23T16:48:18.936Z,54.63
2023-02-23T16:53:58.885Z,58.22
2023-02-23T16:56:33.536Z,51.53
2023-02-23T16:59:15.584Z,57.50
2023-02-23T17:01:46.638Z,55.13
2023-02-23T17:04:23.246Z,57.00
2023-02-23T17:06:58.051Z,56.05
2023-02-23T17:09:25.625Z,59.63
2023-02-23T17:11:52.943Z,59.60
2023-02-23T17:14:28.299Z,53.55
2023-02-23T17:17:15.084Z,58.20
2023-02-23T17:19:44.183Z,55.13
2023-02-23T17:22:13.519Z,54.22
2023-02-23T17:24:43.371Z,60.35
2023-02-23T17:30:27.091Z,61.28
2023-02-23T17:32:58.564Z,58.47
2023-02-23T17:35:26.695Z,54.30
2023-02-23T17:37:54.581Z,65.03
2023-02-23T17:40:36.621Z,60.45
2023-02-23T17:43:09.494Z,60.63
2023-02-23T17:45:36.832Z,59.30
2023-02-23T17:48:04.160Z,70.70
2023-02-23T17:50:31.680Z,62.05
2023-02-23T17:52:59.259Z,63.30
2023-02-23T17:55:58.582Z,66.25
2023-02-23T17:58:26.633Z,69.82
2023-02-23T18:00:56.383Z,62.13
2023-02-23T18:03:25.539Z,72.40
2023-02-23T18:06:11.667Z,70.15
2023-02-23T18:08:42.455Z,69.35
2023-02-23T18:11:10.675Z,76.97
2023-02-23T18:13:46.831Z,87.68
2023-02-23T18:16:16.097Z,77.72
2023-02-23T18:18:53.749Z,81.20
2023-02-23T18:21:22.706Z,82.03
2023-02-23T18:23:51.520Z,85.32
2023-02-23T18:26:35.604Z,79.03
2023-02-23T18:32:07.810Z,93.25
2023-02-23T18:34:35.531Z,89.00
2023-02-23T18:37:04.443Z,91.00
2023-02-23T18:39:33.000Z,87.55
2023-02-23T18:42:07.448Z,95.40
2023-02-23T18:44:35.321Z,96.85
2023-02-23T18:47:02.619Z,91.38
2023-02-23T18:49:30.078Z,91.95
2023-02-23T18:51:58.149Z,97.82
2023-02-23T18:54:26.076Z,91.40
2023-02-23T18:56:55.279Z,95.95
2023-02-23T18:59:22.442Z,97.40
2023-02-23T19:01:49.642Z,105.25
2023-02-23T19:04:20.335Z,95.95
2023-02-23T19:06:48.429Z,102.47
2023-02-23T19:09:21.411Z,96.70
2023-02-23T19:11:50.672Z,107.50
2023-02-23T19:14:26.109Z,111.90
2023-02-23T19:17:00.275Z,114.35
2023-02-23T19:19:27.863Z,104.43
2023-02-23T19:21:58.927Z,118.10
2023-02-23T19:24:26.202Z,121.68
2023-02-23T19:26:53.341Z,106.53
2023-02-23T19:29:20.652Z,118.82
2023-02-23T19:31:50.012Z,98.90
2023-02-23T19:34:17.324Z,101.70
2023-02-23T19:36:47.159Z,97.78
2023-02-23T19:39:15.684Z,91.80
2023-02-23T19:41:45.616Z,92.60
2023-02-23T19:44:15.140Z,93.30
2023-02-23T19:46:43.018Z,96.15
2023-02-23T19:49:10.703Z,92.60
2023-02-23T19:51:37.943Z,88.05
2023-02-23T19:54:06.384Z,82.40
2023-02-23T19:56:34.156Z,84.80
2023-02-23T19:59:02.338Z,79.65
2023-02-23T20:01:32.964Z,83.82
2023-02-23T20:04:06.606Z,72.80
2023-02-23T20:06:44.891Z,74.47
2023-02-23T20:09:12.392Z,74.47
2023-02-23T20:11:40.722Z,75.07
2023-02-23T20:14:08.328Z,71.53
2023-02-23T20:16:35.782Z,73.75
2023-02-23T20:19:10.159Z,79.97
2023-02-23T20:21:37.447Z,81.90
2023-02-23T20:24:05.530Z,75.03
2023-02-23T20:26:37.240Z,83.70
2023-02-23T20:29:10.705Z,87.25
2023-02-23T20:31:41.907Z,82.90
2023-02-23T20:34:13.324Z,79.50
2023-02-23T20:36:40.545Z,77.53
2023-02-23T20:39:10.805Z,70.65
2023-02-23T20:41:43.307Z,76.30
2023-02-23T20:46:44.469Z,79.95
2023-02-23T20:49:14.361Z,74.63
2023-02-23T20:51:46.127Z,78.63
2023-02-23T20:54:15.103Z,77.75
2023-02-23T20:56:43.677Z,73.63
2023-02-23T20:59:12.124Z,79.88
2023-02-23T21:01:45.291Z,71.68
2023-02-23T21:04:13.259Z,68.78
2023-02-23T21:06:40.487Z,73.90
2023-02-23T21:09:12.673Z,72.68
2023-02-23T21:14:08.686Z,70.50
2023-02-23T21:16:36.684Z,75.22
2023-02-23T21:19:06.832Z,77.15
2023-02-23T21:21:43.680Z,76.40
2023-02-23T21:24:12.495Z,72.68
2023-02-23T21:26:39.532Z,76.65
2023-02-23T21:29:15.098Z,75.22
2023-02-23T21:31:45.418Z,76.03
2023-02-23T21:34:15.486Z,74.15
2023-02-23T21:36:42.720Z,78.22
2023-02-23T21:39:09.918Z,75.28
2023-02-23T21:41:37.884Z,79.80
2023-02-23T21:44:08.516Z,88.10
2023-02-23T21:46:35.769Z,91.55
2023-02-23T21:49:09.981Z,99.05
2023-02-23T21:51:37.841Z,105.28
2023-02-23T21:54:06.132Z,102.20
2023-02-23T21:56:34.780Z,116.50
2023-02-23T21:59:08.371Z,112.07
2023-02-23T22:01:39.625Z,114.55
2023-02-23T22:04:11.107Z,118.90
2023-02-23T22:06:44.329Z,108.18
2023-02-23T22:09:12.722Z,122.90
2023-02-23T22:11:46.502Z,125.85
2023-02-23T22:14:18.108Z,130.38
2023-02-23T22:16:46.034Z,122.13
2023-02-23T22:19:13.231Z,131.65
2023-02-23T22:21:42.180Z,123.55
2023-02-23T22:24:12.825Z,131.57
2023-02-23T22:26:50.436Z,128.93
2023-02-23T22:29:17.904Z,138.15
2023-02-23T22:31:45.207Z,134.32
2023-02-23T22:34:12.519Z,130.02
2023-02-23T22:36:39.850Z,149.77
2023-02-23T22:39:18.752Z,139.38
2023-02-23T22:52:00.186Z,127.60
2023-02-23T22:59:28.619Z,104.72
2023-02-23T23:01:57.504Z,115.38
2023-02-23T23:04:26.122Z,121.45
2023-02-23T23:06:56.537Z,123.60
2023-02-23T23:09:23.688Z,115.47
2023-02-23T23:11:54.084Z,117.32
2023-02-23T23:14:22.138Z,117.47
2023-02-23T23:16:54.257Z,114.78
2023-02-23T23:19:25.819Z,104.60
2023-02-23T23:21:55.943Z,118.53
2023-02-23T23:24:24.856Z,118.43
2023-02-23T23:27:00.493Z,115.97
2023-02-23T23:29:32.538Z,110.78
2023-02-23T23:32:01.741Z,118.57
2023-02-23T23:34:29.119Z,121.80
2023-02-23T23:36:56.807Z,122.65
2023-02-23T23:39:26.095Z,129.15
2023-02-23T23:41:54.607Z,132.60
2023-02-23T23:44:29.582Z,131.50
2023-02-23T23:46:59.414Z,129.98
2023-02-23T23:49:26.572Z,127.70
2023-02-23T23:51:56.735Z,126.22
2023-02-23T23:54:30.838Z,131.98
2023-02-23T23:57:03.726Z,129.05
2023-02-23T23:59:32.603Z,135.05
